createdAt,value
2017-12-22T00:02:03.584Z,9.36
2017-12-22T00:04:32.803Z,9.36
2017-12-22T00:07:02.026Z,9.34
2017-12-22T00:09:31.276Z,9.35
2017-12-22T00:12:00.518Z,9.35
2017-12-22T00:14:29.744Z,9.35
2017-12-22T00:16:58.939Z,9.32
2017-12-22T00:19:28.142Z,9.27
2017-12-22T00:21:57.359Z,9.25
2017-12-22T00:24:26.568Z,9.18
2017-12-22T00:26:56.520Z,9.14
2017-12-22T00:29:25.728Z,9.12
2017-12-22T00:31:54.964Z,9.11
2017-12-22T00:34:24.210Z,9.05
2017-12-22T00:36:54.155Z,9.03
2017-12-22T00:39:23.371Z,9.01
2017-12-22T00:41:52.608Z,9.03
2017-12-22T00:44:21.827Z,9.04
2017-12-22T00:46:51.016Z,9.01
2017-12-22T00:49:20.241Z,8.98
2017-12-22T00:51:49.454Z,8.93
2017-12-22T00:54:18.668Z,8.92
2017-12-22T00:56:47.872Z,8.92
2017-12-22T00:59:17.828Z,8.93
2017-12-22T01:01:47.036Z,8.92
2017-12-22T01:04:16.268Z,8.91
2017-12-22T01:06:45.466Z,8.89
2017-12-22T01:09:14.665Z,8.88
2017-12-22T01:11:43.923Z,8.85
2017-12-22T01:14:13.119Z,8.90
2017-12-22T01:30:09.748Z,8.94
2017-12-22T01:32:38.955Z,8.91
2017-12-22T01:35:08.165Z,8.88
2017-12-22T01:37:37.403Z,8.85
2017-12-22T01:40:07.596Z,8.81
2017-12-22T01:42:36.822Z,8.84
2017-12-22T01:45:06.030Z,8.75
2017-12-22T01:47:35.256Z,8.67
2017-12-22T01:50:04.514Z,8.64
2017-12-22T01:52:34.461Z,8.69
2017-12-22T01:55:03.856Z,8.66
2017-12-22T01:57:33.784Z,8.69
2017-12-22T02:00:03.006Z,8.72
2017-12-22T02:02:32.212Z,8.72
2017-12-22T02:05:01.420Z,8.71
2017-12-22T02:07:31.377Z,8.72
2017-12-22T02:10:00.597Z,8.70
2017-12-22T02:12:29.810Z,8.71
2017-12-22T02:14:59.007Z,8.75
2017-12-22T02:17:28.202Z,8.76
2017-12-22T02:19:57.383Z,8.76
2017-12-22T02:22:26.600Z,8.74
2017-12-22T02:24:55.802Z,8.74
2017-12-22T02:27:25.025Z,8.76
2017-12-22T02:29:54.990Z,8.77
2017-12-22T02:32:24.198Z,8.82
2017-12-22T02:34:53.391Z,8.83
2017-12-22T02:37:22.686Z,8.80
2017-12-22T02:39:51.894Z,8.79
2017-12-22T02:42:21.123Z,8.78
2017-12-22T02:44:51.080Z,8.80
2017-12-22T02:47:20.307Z,8.80
2017-12-22T02:49:49.528Z,8.78
2017-12-22T02:52:19.501Z,8.79
2017-12-22T02:54:48.719Z,8.80
2017-12-22T02:57:17.927Z,8.79
2017-12-22T02:59:47.114Z,8.78
2017-12-22T03:02:16.364Z,8.76
2017-12-22T03:04:45.572Z,8.77
2017-12-22T03:07:14.765Z,8.76
2017-12-22T03:09:44.027Z,8.77
2017-12-22T03:12:13.998Z,8.79
2017-12-22T03:14:43.224Z,8.78
2017-12-22T03:17:12.434Z,8.75
2017-12-22T03:19:41.637Z,8.69
2017-12-22T03:22:10.810Z,8.69
2017-12-22T03:24:40.031Z,8.72
2017-12-22T03:27:09.982Z,8.77
2017-12-22T03:29:39.188Z,8.76
2017-12-22T03:32:08.366Z,8.78
2017-12-22T03:34:37.580Z,8.80
2017-12-22T03:37:06.788Z,8.80
2017-12-22T03:39:36.000Z,8.83
2017-12-22T03:42:05.207Z,8.83
2017-12-22T03:44:34.415Z,8.85
2017-12-22T03:47:03.618Z,8.88
2017-12-22T03:49:33.619Z,8.87
2017-12-22T03:52:02.815Z,8.88
2017-12-22T03:54:32.027Z,8.91
2017-12-22T03:57:03.423Z,8.92
2017-12-22T03:59:32.642Z,8.87
2017-12-22T04:02:01.881Z,8.93
2017-12-22T04:04:31.875Z,8.98
2017-12-22T04:07:01.204Z,9.01
2017-12-22T04:09:31.182Z,9.04
2017-12-22T04:12:00.393Z,9.08
2017-12-22T04:14:29.578Z,9.09
2017-12-22T04:17:00.199Z,9.12
2017-12-22T04:19:29.402Z,9.14
2017-12-22T04:21:58.594Z,9.14
2017-12-22T04:24:27.989Z,9.15
2017-12-22T04:26:57.207Z,9.17
2017-12-22T04:29:26.562Z,9.19
2017-12-22T04:31:55.763Z,9.20
2017-12-22T04:34:24.957Z,9.25
2017-12-22T04:36:54.159Z,9.31
2017-12-22T04:39:23.357Z,9.34
2017-12-22T04:41:52.561Z,9.39
2017-12-22T04:44:21.756Z,9.39
2017-12-22T04:46:50.985Z,9.40
2017-12-22T04:49:20.188Z,9.39
2017-12-22T04:51:49.373Z,9.41
2017-12-22T04:54:18.604Z,9.43
2017-12-22T04:56:48.559Z,9.44
2017-12-22T04:59:17.779Z,9.45
2017-12-22T05:01:46.971Z,9.47
2017-12-22T05:04:19.076Z,9.46
2017-12-22T05:06:49.104Z,9.46
2017-12-22T05:09:19.067Z,9.46
2017-12-22T05:11:48.254Z,9.43
2017-12-22T05:14:17.464Z,9.49
2017-12-22T05:16:46.706Z,9.52
2017-12-22T05:19:16.658Z,9.53
2017-12-22T05:21:45.863Z,9.55
2017-12-22T05:24:15.071Z,9.52
2017-12-22T05:26:44.279Z,9.48
2017-12-22T05:29:13.488Z,9.47
2017-12-22T05:31:42.702Z,9.52
2017-12-22T05:34:11.893Z,9.55
2017-12-22T05:36:41.891Z,9.56
2017-12-22T05:39:11.070Z,9.62
2017-12-22T05:41:40.271Z,9.65
2017-12-22T05:44:09.590Z,9.68
2017-12-22T05:46:38.797Z,9.70
2017-12-22T05:49:09.033Z,9.72
2017-12-22T05:51:38.203Z,9.69
2017-12-22T05:54:07.430Z,9.69
2017-12-22T05:56:36.619Z,9.69
2017-12-22T05:59:06.604Z,9.69
2017-12-22T06:01:35.923Z,9.67
2017-12-22T06:04:05.176Z,9.67
2017-12-22T06:06:34.499Z,9.63
2017-12-22T06:09:03.738Z,9.65
2017-12-22T06:11:32.943Z,9.64
2017-12-22T06:14:02.955Z,9.63
2017-12-22T06:16:32.912Z,9.66
2017-12-22T06:19:02.139Z,9.63
2017-12-22T06:21:31.335Z,9.63
2017-12-22T06:24:00.537Z,9.61
2017-12-22T06:26:29.714Z,9.57
2017-12-22T06:28:58.927Z,9.58
2017-12-22T06:31:28.108Z,9.60
2017-12-22T06:33:57.308Z,9.58
2017-12-22T06:36:26.525Z,9.60
2017-12-22T06:38:55.735Z,9.59
2017-12-22T06:41:24.943Z,9.59
2017-12-22T06:43:54.885Z,9.61
2017-12-22T06:46:24.101Z,9.59
2017-12-22T06:48:53.299Z,9.61
2017-12-22T06:51:22.519Z,9.60
2017-12-22T06:53:51.696Z,9.61
2017-12-22T06:56:20.985Z,9.64
2017-12-22T06:58:50.183Z,9.65
2017-12-22T07:01:19.404Z,9.69
2017-12-22T07:03:48.627Z,9.72
2017-12-22T07:06:18.591Z,9.75
2017-12-22T07:08:47.922Z,9.76
2017-12-22T07:11:17.102Z,9.77
2017-12-22T07:13:46.318Z,9.81
2017-12-22T07:16:16.314Z,9.83
2017-12-22T07:18:45.551Z,9.81
2017-12-22T07:21:15.511Z,9.84
2017-12-22T07:23:44.728Z,9.88
2017-12-22T07:26:13.948Z,9.92
2017-12-22T07:28:43.169Z,9.94
2017-12-22T07:31:12.300Z,9.87
2017-12-22T07:33:41.526Z,9.85
2017-12-22T07:36:10.707Z,9.85
2017-12-22T07:38:39.941Z,9.84
2017-12-22T07:41:09.903Z,9.78
2017-12-22T07:43:39.183Z,9.78
2017-12-22T07:46:08.380Z,9.80
2017-12-22T07:48:37.814Z,9.86
2017-12-22T07:51:07.059Z,9.88
2017-12-22T07:53:36.246Z,9.90
2017-12-22T07:56:05.444Z,9.95
2017-12-22T07:58:34.657Z,9.96
2017-12-22T08:01:04.645Z,9.94
2017-12-22T08:03:33.878Z,9.91
2017-12-22T08:06:04.111Z,9.89
2017-12-22T08:08:33.331Z,9.89
2017-12-22T08:11:02.542Z,9.87
2017-12-22T08:13:31.715Z,9.84
2017-12-22T08:16:00.942Z,9.82
2017-12-22T08:18:30.146Z,9.81
2017-12-22T08:20:59.370Z,9.80
2017-12-22T08:23:29.350Z,9.83
2017-12-22T08:25:58.564Z,9.89
2017-12-22T08:28:27.790Z,9.96
2017-12-22T08:30:57.759Z,9.96
2017-12-22T08:33:26.963Z,9.98
2017-12-22T08:35:56.180Z,9.98
2017-12-22T08:38:25.905Z,10.01
2017-12-22T08:40:55.863Z,10.01
2017-12-22T08:43:25.104Z,9.96
2017-12-22T08:45:54.343Z,9.94
2017-12-22T08:48:23.639Z,9.94
2017-12-22T08:50:53.151Z,9.95
2017-12-22T08:53:22.384Z,9.97
2017-12-22T08:55:51.563Z,9.98
2017-12-22T08:58:20.798Z,9.95
2017-12-22T09:00:49.998Z,10.01
2017-12-22T09:03:19.195Z,10.05
2017-12-22T09:05:49.188Z,10.06
2017-12-22T09:08:18.399Z,10.09
2017-12-22T09:10:47.610Z,10.08
2017-12-22T09:13:16.845Z,10.09
2017-12-22T09:15:46.065Z,10.13
2017-12-22T09:18:15.282Z,10.20
2017-12-22T09:20:44.491Z,10.25
2017-12-22T09:23:13.688Z,10.29
2017-12-22T09:25:42.926Z,10.34
2017-12-22T09:28:12.882Z,10.39
2017-12-22T09:30:42.141Z,10.40
2017-12-22T09:33:11.338Z,10.47
2017-12-22T09:35:40.596Z,10.53
2017-12-22T09:38:09.813Z,10.58
2017-12-22T09:40:39.015Z,10.57
2017-12-22T09:43:08.260Z,10.58
2017-12-22T09:45:37.485Z,10.61
2017-12-22T09:48:06.702Z,10.66
2017-12-22T09:50:36.687Z,10.71
2017-12-22T09:53:05.925Z,10.69
2017-12-22T09:55:35.888Z,10.69
2017-12-22T09:58:05.091Z,10.72
2017-12-22T10:00:34.309Z,10.76
2017-12-22T10:03:03.670Z,10.77
2017-12-22T10:05:32.892Z,10.77
2017-12-22T10:08:02.115Z,10.79
2017-12-22T10:10:31.291Z,10.80
2017-12-22T10:13:00.532Z,10.80
2017-12-22T10:15:29.734Z,10.86
2017-12-22T10:17:58.968Z,10.90
2017-12-22T10:20:28.163Z,10.94
2017-12-22T10:22:57.376Z,10.95
2017-12-22T10:25:26.627Z,10.99
2017-12-22T10:27:55.839Z,10.99
2017-12-22T10:30:25.059Z,10.94
2017-12-22T10:32:54.268Z,10.88
2017-12-22T10:35:23.491Z,10.94
2017-12-22T10:37:53.471Z,10.92
2017-12-22T10:40:22.710Z,10.69
2017-12-22T10:42:52.701Z,10.71
2017-12-22T10:45:21.919Z,10.73
2017-12-22T10:47:51.915Z,10.79
2017-12-22T10:50:21.124Z,10.93
2017-12-22T10:52:50.321Z,10.99
2017-12-22T10:55:20.339Z,10.97
2017-12-22T10:57:50.311Z,10.91
2017-12-22T11:00:19.528Z,10.97
2017-12-22T11:02:48.731Z,10.91
2017-12-22T11:05:17.962Z,10.98
2017-12-22T11:07:47.952Z,11.04
2017-12-22T11:10:17.199Z,10.88
2017-12-22T11:12:46.392Z,10.91
2017-12-22T11:15:15.599Z,10.86
2017-12-22T11:17:44.811Z,10.74
2017-12-22T11:20:14.030Z,10.76
2017-12-22T11:22:43.239Z,10.60
2017-12-22T11:25:12.489Z,10.53
2017-12-22T11:27:41.702Z,10.57
2017-12-22T11:30:10.919Z,10.42
2017-12-22T11:32:40.902Z,10.32
2017-12-22T11:35:10.102Z,10.37
2017-12-22T11:37:40.188Z,10.50
2017-12-22T11:40:10.188Z,10.53
2017-12-22T11:42:39.463Z,10.58
2017-12-22T11:45:08.742Z,10.54
2017-12-22T11:47:38.007Z,10.34
2017-12-22T11:50:07.226Z,10.27
2017-12-22T11:52:36.419Z,10.27
2017-12-22T11:55:05.680Z,10.32
2017-12-22T11:57:35.648Z,10.25
2017-12-22T12:00:04.868Z,10.31
2017-12-22T12:02:34.859Z,10.26
2017-12-22T12:05:04.099Z,10.27
2017-12-22T12:07:33.416Z,10.21
2017-12-22T12:10:03.459Z,10.22
2017-12-22T12:12:32.678Z,10.23
2017-12-22T12:15:01.887Z,10.20
2017-12-22T12:17:31.096Z,10.09
2017-12-22T12:20:00.340Z,10.10
2017-12-22T12:22:29.564Z,10.12
2017-12-22T12:24:58.799Z,10.09
2017-12-22T12:27:27.999Z,10.04
2017-12-22T12:29:57.199Z,10.03
2017-12-22T12:32:27.175Z,10.11
2017-12-22T12:34:56.599Z,10.20
2017-12-22T12:37:25.812Z,10.17
2017-12-22T12:39:55.013Z,10.27
2017-12-22T12:42:24.190Z,10.35
2017-12-22T12:44:53.423Z,10.34
2017-12-22T12:47:23.413Z,10.39
2017-12-22T12:49:52.623Z,10.53
2017-12-22T12:52:22.643Z,10.63
2017-12-22T12:54:52.645Z,10.62
2017-12-22T12:57:21.843Z,10.65
2017-12-22T12:59:51.137Z,10.56
2017-12-22T13:02:20.371Z,10.53
2017-12-22T13:04:49.619Z,10.63
2017-12-22T13:07:18.824Z,10.62
2017-12-22T13:09:48.043Z,10.51
2017-12-22T13:12:18.032Z,10.60
2017-12-22T13:14:47.241Z,10.53
2017-12-22T13:17:17.255Z,10.57
2017-12-22T13:19:46.492Z,10.67
2017-12-22T13:22:15.705Z,10.77
2017-12-22T13:24:44.928Z,10.81
2017-12-22T13:27:14.174Z,10.85
2017-12-22T13:29:44.159Z,10.93
2017-12-22T13:32:13.409Z,10.97
2017-12-22T13:34:42.635Z,10.94
2017-12-22T13:37:11.855Z,10.98
2017-12-22T13:39:41.047Z,11.02
2017-12-22T13:42:10.289Z,11.00
2017-12-22T13:44:40.248Z,11.08
2017-12-22T13:47:09.522Z,11.13
2017-12-22T13:49:38.754Z,11.17
2017-12-22T13:52:08.026Z,11.22
2017-12-22T13:54:37.247Z,11.28
2017-12-22T13:57:06.455Z,11.26
2017-12-22T13:59:35.691Z,11.27
2017-12-22T14:02:04.902Z,11.22
2017-12-22T14:04:34.158Z,11.08
2017-12-22T14:07:03.367Z,11.09
2017-12-22T14:09:33.376Z,11.06
2017-12-22T14:12:02.593Z,11.03
2017-12-22T14:14:32.648Z,10.99
2017-12-22T14:17:01.889Z,10.97
2017-12-22T14:19:31.104Z,10.86
2017-12-22T14:22:01.070Z,10.92
2017-12-22T14:24:30.497Z,10.97
2017-12-22T14:26:59.696Z,10.93
2017-12-22T14:29:29.680Z,10.92
2017-12-22T14:31:58.950Z,10.94
2017-12-22T14:34:28.369Z,10.81
2017-12-22T14:36:57.604Z,10.83
2017-12-22T14:39:26.861Z,10.87
2017-12-22T14:41:56.093Z,10.89
2017-12-22T14:44:25.295Z,10.91
2017-12-22T14:46:54.517Z,10.91
2017-12-22T14:49:24.487Z,10.90
2017-12-22T14:51:53.703Z,10.90
2017-12-22T14:54:22.902Z,10.89
2017-12-22T14:56:52.926Z,10.89
2017-12-22T14:59:22.166Z,10.84
2017-12-22T15:01:51.412Z,10.80
2017-12-22T15:04:20.608Z,10.80
2017-12-22T15:06:49.838Z,10.79
2017-12-22T15:09:19.821Z,10.79
2017-12-22T15:11:49.132Z,10.79
2017-12-22T15:14:18.313Z,10.76
2017-12-22T15:16:47.514Z,10.79
2017-12-22T15:19:16.928Z,10.80
2017-12-22T15:21:46.149Z,10.79
2017-12-22T15:24:16.147Z,10.62
2017-12-22T15:26:45.365Z,10.48
2017-12-22T15:29:15.341Z,10.37
2017-12-22T15:31:44.541Z,10.28
2017-12-22T15:34:13.763Z,10.18
2017-12-22T15:36:43.751Z,10.11
2017-12-22T15:39:12.980Z,9.96
2017-12-22T15:41:42.967Z,9.89
2017-12-22T15:44:12.264Z,9.94
2017-12-22T15:46:41.512Z,9.89
2017-12-22T15:49:11.463Z,9.83
2017-12-22T15:51:40.698Z,9.78
2017-12-22T15:54:10.282Z,9.79
2017-12-22T15:56:39.542Z,9.93
2017-12-22T15:59:08.763Z,10.04
2017-12-22T16:01:37.983Z,9.95
2017-12-22T16:04:07.201Z,9.88
2017-12-22T16:06:37.158Z,9.84
2017-12-22T16:09:06.760Z,9.85
2017-12-22T16:11:35.977Z,9.80
2017-12-22T16:14:15.082Z,9.81
2017-12-22T16:16:44.308Z,9.72
2017-12-22T16:19:13.505Z,9.57
2017-12-22T16:21:42.751Z,9.54
2017-12-22T16:24:11.930Z,9.62
2017-12-22T16:26:41.127Z,9.66
2017-12-22T16:29:10.360Z,9.74
2017-12-22T16:31:40.347Z,9.84
2017-12-22T16:34:10.416Z,9.87
2017-12-22T16:36:39.616Z,9.85
2017-12-22T16:39:08.896Z,9.86
2017-12-22T16:41:38.114Z,9.96
2017-12-22T16:44:07.332Z,10.02
2017-12-22T16:46:36.549Z,10.05
2017-12-22T16:49:05.765Z,10.06
2017-12-22T16:51:35.760Z,10.07
2017-12-22T16:54:04.979Z,10.06
2017-12-22T16:56:34.962Z,10.09
2017-12-22T16:59:04.181Z,10.05
2017-12-22T17:01:34.170Z,10.08
2017-12-22T17:04:03.399Z,10.11
2017-12-22T17:06:33.382Z,10.13
2017-12-22T17:09:03.045Z,10.13
2017-12-22T17:11:33.017Z,10.11
2017-12-22T17:14:02.237Z,10.08
2017-12-22T17:16:31.486Z,10.08
2017-12-22T17:19:00.675Z,10.07
2017-12-22T17:21:29.904Z,10.01
2017-12-22T17:23:59.119Z,10.02
2017-12-22T17:26:29.083Z,10.04
2017-12-22T17:28:58.342Z,10.04
2017-12-22T17:31:28.323Z,10.07
2017-12-22T17:33:57.543Z,10.10
2017-12-22T17:36:26.785Z,10.00
2017-12-22T17:38:56.001Z,9.92
2017-12-22T17:41:25.211Z,9.91
2017-12-22T17:43:54.456Z,9.87
2017-12-22T17:46:24.414Z,9.85
2017-12-22T17:48:53.674Z,9.87
2017-12-22T17:51:23.644Z,9.89
2017-12-22T17:53:52.873Z,9.91
2017-12-22T17:56:22.831Z,9.91
2017-12-22T17:58:52.088Z,9.97
2017-12-22T18:01:22.076Z,9.97
2017-12-22T18:03:51.291Z,9.88
2017-12-22T18:06:20.527Z,9.83
2017-12-22T18:08:49.700Z,9.81
2017-12-22T18:11:19.653Z,9.85
2017-12-22T18:13:48.839Z,9.91
2017-12-22T18:16:18.059Z,9.89
2017-12-22T18:18:47.278Z,9.88
2017-12-22T18:21:18.538Z,9.88
2017-12-22T18:23:47.735Z,9.84
2017-12-22T18:26:16.939Z,9.84
2017-12-22T18:28:46.919Z,9.88
2017-12-22T18:31:16.955Z,9.92
2017-12-22T18:33:46.940Z,9.94
2017-12-22T18:36:16.147Z,9.91
2017-12-22T18:38:45.341Z,9.89
2017-12-22T18:41:14.577Z,9.85
2017-12-22T18:43:43.795Z,9.86
2017-12-22T18:46:13.758Z,9.82
2017-12-22T18:48:42.955Z,9.75
2017-12-22T18:51:12.136Z,9.65
2017-12-22T18:53:43.103Z,9.58
2017-12-22T18:56:12.443Z,9.56
2017-12-22T18:58:42.423Z,9.52
2017-12-22T19:01:11.618Z,9.52
2017-12-22T19:03:40.927Z,9.54
2017-12-22T19:06:10.332Z,9.54
2017-12-22T19:08:39.535Z,9.52
2017-12-22T19:11:09.507Z,9.51
2017-12-22T19:13:38.718Z,9.51
2017-12-22T19:16:07.967Z,9.46
2017-12-22T19:18:37.185Z,9.43
2017-12-22T19:21:06.391Z,9.39
2017-12-22T19:23:35.603Z,9.37
2017-12-22T19:26:04.884Z,9.30
2017-12-22T19:28:34.135Z,9.25
2017-12-22T19:31:04.140Z,9.22
2017-12-22T19:33:33.352Z,9.16
2017-12-22T19:36:03.351Z,9.11
2017-12-22T19:38:32.548Z,9.09
2017-12-22T19:41:01.750Z,9.03
2017-12-22T19:43:30.977Z,8.95
2017-12-22T19:46:00.194Z,8.89
2017-12-22T19:48:29.419Z,8.82
2017-12-22T19:50:58.619Z,8.75
2017-12-22T19:53:27.842Z,8.70
2017-12-22T19:55:57.815Z,8.66
2017-12-22T19:58:27.051Z,8.64
2017-12-22T20:00:56.258Z,8.62
2017-12-22T20:03:28.134Z,8.61
2017-12-22T20:05:57.373Z,8.59
2017-12-22T20:08:27.334Z,8.57
2017-12-22T20:10:56.549Z,8.53
2017-12-22T20:13:26.538Z,8.47
2017-12-22T20:15:56.653Z,8.45
2017-12-22T20:18:25.882Z,8.36
2017-12-22T20:20:55.150Z,8.32
2017-12-22T20:23:25.326Z,8.35
2017-12-22T20:25:54.558Z,8.34
2017-12-22T20:28:23.896Z,8.34
2017-12-22T20:30:53.532Z,8.35
2017-12-22T20:33:23.588Z,8.27
2017-12-22T20:35:52.818Z,8.22
2017-12-22T20:38:22.053Z,8.14
2017-12-22T20:40:51.260Z,8.06
2017-12-22T20:43:20.474Z,8.01
2017-12-22T20:45:49.696Z,7.95
2017-12-22T20:48:18.975Z,7.93
2017-12-22T20:50:48.189Z,7.88
2017-12-22T20:53:18.156Z,7.81
2017-12-22T20:55:47.403Z,7.78
2017-12-22T20:58:17.370Z,7.72
2017-12-22T21:00:46.600Z,7.68
2017-12-22T21:03:15.837Z,7.61
2017-12-22T21:05:45.056Z,7.57
2017-12-22T21:08:14.280Z,7.49
2017-12-22T21:10:43.496Z,7.43
2017-12-22T21:13:12.727Z,7.35
2017-12-22T21:15:41.936Z,7.31
2017-12-22T21:18:11.177Z,7.31
2017-12-22T21:20:40.425Z,7.32
2017-12-22T21:23:09.659Z,7.29
2017-12-22T21:25:38.859Z,7.31
2017-12-22T21:40:58.846Z,7.52
2017-12-22T21:43:28.083Z,7.58
2017-12-22T21:45:57.364Z,7.62
2017-12-22T21:48:27.386Z,7.63
2017-12-22T21:50:56.589Z,7.71
2017-12-22T21:53:25.808Z,7.71
2017-12-22T21:55:55.217Z,7.75
2017-12-22T21:58:24.519Z,7.83
2017-12-22T22:00:53.759Z,7.87
2017-12-22T22:03:23.759Z,7.95
2017-12-22T22:05:53.722Z,8.01
2017-12-22T22:08:22.954Z,8.05
2017-12-22T22:10:52.179Z,8.04
2017-12-22T22:13:21.377Z,8.06
2017-12-22T22:15:50.627Z,8.10
2017-12-22T22:18:19.838Z,8.15
2017-12-22T22:20:49.074Z,8.21
2017-12-22T22:23:18.282Z,8.28
2017-12-22T22:25:47.556Z,8.30
2017-12-22T22:28:16.707Z,8.23
2017-12-22T22:30:45.926Z,8.21
2017-12-22T22:33:15.155Z,8.18
2017-12-22T22:35:44.379Z,8.19
2017-12-22T22:38:14.342Z,8.18
2017-12-22T22:40:43.599Z,8.16
2017-12-22T22:43:12.838Z,8.14
2017-12-22T22:45:42.048Z,8.15
2017-12-22T22:48:11.271Z,8.14
2017-12-22T22:50:41.226Z,8.16
2017-12-22T22:53:10.435Z,8.16
2017-12-22T22:55:39.645Z,8.16
2017-12-22T22:58:08.863Z,8.19
2017-12-22T23:00:38.063Z,8.17
2017-12-22T23:03:07.290Z,8.22
2017-12-22T23:05:37.347Z,8.25
2017-12-22T23:08:06.577Z,8.26
2017-12-22T23:10:35.824Z,8.28
2017-12-22T23:13:05.052Z,8.27
2017-12-22T23:15:34.277Z,8.30
2017-12-22T23:18:03.508Z,8.33
2017-12-22T23:20:32.723Z,8.35
2017-12-22T23:23:01.930Z,8.37
2017-12-22T23:25:31.190Z,8.39
2017-12-22T23:28:00.452Z,8.44
2017-12-22T23:30:29.674Z,8.49
2017-12-22T23:32:59.661Z,8.53
2017-12-22T23:35:29.002Z,8.53
2017-12-22T23:37:58.996Z,8.56
2017-12-22T23:40:29.011Z,8.57
2017-12-22T23:42:58.270Z,8.60
2017-12-22T23:45:27.479Z,8.63
2017-12-22T23:47:56.703Z,8.65
2017-12-22T23:50:26.680Z,8.65
2017-12-22T23:52:55.910Z,8.71
2017-12-22T23:55:25.114Z,8.75
2017-12-22T23:57:54.359Z,8.76
